Time;durP1;ratioP1;P1;durP2;ratioP2;P2;SDS_P1;SDS_P2;PMS_P1;PMS_P2;Temp;Humidity;BMP_temperature;BMP_pressure;BME280_temperature;BME280_humidity;BME280_pressure;Samples;Min_cycle;Max_cycle;Signal;HPM_P1;HPM_P2
2021/09/18 00:00:01;;;;;;;3.88;3.47;;;;;;;;;;5093025;28;20526;-73
2021/09/18 00:02:28;;;;;;;3.90;3.30;;;;;;;;;;5093236;28;20032;-74
2021/09/18 00:04:54;;;;;;;7.28;2.72;;;;;;;;;;5093077;28;20030;-73
2021/09/18 00:07:20;;;;;;;2.72;2.53;;;;;;;;;;5093186;28;20077;-73
2021/09/18 00:09:46;;;;;;;3.08;2.88;;;;;;;;;;5093024;28;20111;-73
2021/09/18 00:12:12;;;;;;;4.53;3.90;;;;;;;;;;5095658;28;20539;-73
2021/09/18 00:14:39;;;;;;;3.08;2.88;;;;;;;;;;5096866;28;20020;-71
2021/09/18 00:17:06;;;;;;;3.85;3.10;;;;;;;;;;5096784;28;20035;-73
2021/09/18 00:19:32;;;;;;;3.58;3.28;;;;;;;;;;5096612;28;20020;-72
2021/09/18 00:21:58;;;;;;;3.50;3.20;;;;;;;;;;5096293;28;20051;-72
2021/09/18 00:24:24;;;;;;;4.10;3.70;;;;;;;;;;5096679;28;20339;-72
2021/09/18 00:26:50;;;;;;;3.13;2.85;;;;;;;;;;5096371;28;20020;-73
2021/09/18 00:29:16;;;;;;;3.30;3.00;;;;;;;;;;5096611;28;20020;-72
2021/09/18 00:31:42;;;;;;;4.38;3.33;;;;;;;;;;5096201;28;20020;-73
2021/09/18 00:34:08;;;;;;;3.83;3.53;;;;;;;;;;5095886;28;20093;-72
2021/09/18 00:36:34;;;;;;;3.20;2.90;;;;;;;;;;5096397;28;20028;-72
2021/09/18 00:39:00;;;;;;;3.20;2.90;;;;;;;;;;5096268;28;20121;-72
2021/09/18 00:41:27;;;;;;;3.42;3.13;;;;;;;;;;5096513;28;20024;-72
2021/09/18 00:43:53;;;;;;;3.22;3.03;;;;;;;;;;5096165;28;20027;-72
2021/09/18 00:46:19;;;;;;;3.42;3.13;;;;;;;;;;5096122;28;20465;-72
2021/09/18 00:48:45;;;;;;;2.80;2.15;;;;;;;;;;5095846;28;20032;-72
2021/09/18 00:51:11;;;;;;;3.80;3.50;;;;;;;;;;5095990;28;20027;-72
2021/09/18 00:53:37;;;;;;;3.08;2.80;;;;;;;;;;5096326;28;20035;-72
2021/09/18 00:56:04;;;;;;;6.53;3.45;;;;;;;;;;5095473;28;20081;-72
2021/09/18 00:58:30;;;;;;;3.25;2.95;;;;;;;;;;5095947;28;20389;-72
2021/09/18 01:00:56;;;;;;;3.92;3.17;;;;;;;;;;5096073;28;20055;-72
2021/09/18 01:03:22;;;;;;;3.20;2.90;;;;;;;;;;5095724;28;20537;-72
2021/09/18 01:05:48;;;;;;;3.20;2.90;;;;;;;;;;5095810;28;20385;-72
2021/09/18 01:08:14;;;;;;;3.22;2.78;;;;;;;;;;5095425;28;20166;-72
2021/09/18 01:10:40;;;;;;;5.30;3.03;;;;;;;;;;5095629;28;20423;-72
2021/09/18 01:13:09;;;;;;;3.00;2.80;;;;;;;;;;5095624;28;20027;-72
2021/09/18 01:15:35;;;;;;;3.08;2.88;;;;;;;;;;5095771;28;20028;-72
2021/09/18 01:18:02;;;;;;;3.15;2.58;;;;;;;;;;5094885;28;20490;-72
2021/09/18 01:20:28;;;;;;;3.30;3.00;;;;;;;;;;5095617;28;20534;-72
2021/09/18 01:22:55;;;;;;;3.42;3.13;;;;;;;;;;5094705;28;20355;-72
2021/09/18 01:25:21;;;;;;;3.15;2.85;;;;;;;;;;5095942;28;20028;-72
2021/09/18 01:27:47;;;;;;;3.75;3.45;;;;;;;;;;5095041;28;20457;-72
2021/09/18 01:30:17;;;;;;;4.90;3.05;;;;;;;;;;5095148;28;20160;-72
2021/09/18 01:32:44;;;;;;;4.80;2.92;;;;;;;;;;5095353;28;20024;-72
2021/09/18 01:35:10;;;;;;;3.45;3.08;;;;;;;;;;5095479;28;20028;-72
2021/09/18 01:37:36;;;;;;;3.13;2.88;;;;;;;;;;5094798;28;20481;-72
2021/09/18 01:40:03;;;;;;;4.20;2.70;;;;;;;;;;5094989;28;20036;-72
2021/09/18 01:42:29;;;;;;;3.20;2.90;;;;;;;;;;5095168;28;20107;-72
2021/09/18 01:44:55;;;;;;;3.00;2.75;;;;;;;;;;5095045;28;20346;-72
2021/09/18 01:47:21;;;;;;;3.15;2.95;;;;;;;;;;5095053;28;20082;-72
2021/09/18 01:49:47;;;;;;;3.55;2.90;;;;;;;;;;5095176;28;20024;-72
2021/09/18 01:52:34;;;;;;;3.97;3.08;;;;;;;;;;5094485;28;20024;-71
2021/09/18 01:54:59;;;;;;;3.53;3.22;;;;;;;;;;5093831;28;20035;-73
2021/09/18 01:57:25;;;;;;;5.72;2.90;;;;;;;;;;5094402;28;20020;-72
2021/09/18 01:59:51;;;;;;;3.70;3.33;;;;;;;;;;5094742;28;20027;-72
2021/09/18 02:02:18;;;;;;;5.65;3.40;;;;;;;;;;5094472;28;20050;-72
2021/09/18 02:04:44;;;;;;;3.40;3.10;;;;;;;;;;5094829;28;20380;-72
2021/09/18 02:07:10;;;;;;;6.47;3.38;;;;;;;;;;5095047;28;20024;-72
2021/09/18 02:09:37;;;;;;;3.30;3.00;;;;;;;;;;5094612;28;20046;-72
2021/09/18 02:12:03;;;;;;;3.58;2.95;;;;;;;;;;5094338;28;20388;-73
2021/09/18 02:14:29;;;;;;;3.47;3.08;;;;;;;;;;5094166;28;20034;-72
2021/09/18 02:16:55;;;;;;;2.92;2.58;;;;;;;;;;5094847;28;20024;-72
2021/09/18 02:19:21;;;;;;;5.47;3.78;;;;;;;;;;5094426;28;20118;-72
2021/09/18 02:21:47;;;;;;;3.03;2.83;;;;;;;;;;5094569;28;20035;-72
2021/09/18 02:24:13;;;;;;;2.80;2.60;;;;;;;;;;5094188;28;20103;-72
2021/09/18 02:26:39;;;;;;;3.30;3.00;;;;;;;;;;5094344;28;20028;-72
2021/09/18 02:29:05;;;;;;;2.97;2.67;;;;;;;;;;5094124;28;20074;-72
2021/09/18 02:31:31;;;;;;;2.95;2.70;;;;;;;;;;5094174;28;20062;-72
2021/09/18 02:33:57;;;;;;;3.30;3.00;;;;;;;;;;5093507;28;20107;-72
2021/09/18 02:36:23;;;;;;;3.72;3.08;;;;;;;;;;5094152;28;20454;-72
2021/09/18 02:38:49;;;;;;;2.92;2.70;;;;;;;;;;5094048;28;20032;-73
2021/09/18 02:41:15;;;;;;;3.13;2.85;;;;;;;;;;5093979;28;20054;-72
2021/09/18 02:43:41;;;;;;;3.65;3.35;;;;;;;;;;5093486;28;20389;-72
2021/09/18 02:46:08;;;;;;;3.50;3.20;;;;;;;;;;5093886;28;20635;-72
2021/09/18 02:48:34;;;;;;;3.38;3.08;;;;;;;;;;5094470;28;20024;-72
2021/09/18 02:51:00;;;;;;;3.10;2.90;;;;;;;;;;5093744;28;20043;-72
2021/09/18 02:53:26;;;;;;;2.60;2.40;;;;;;;;;;5093429;28;20024;-72
2021/09/18 02:55:52;;;;;;;3.60;3.30;;;;;;;;;;5093657;28;20478;-72
2021/09/18 02:58:18;;;;;;;4.65;2.90;;;;;;;;;;5093142;28;20071;-72
2021/09/18 03:00:44;;;;;;;2.97;2.67;;;;;;;;;;5093694;28;20024;-72
2021/09/18 03:03:10;;;;;;;3.25;2.95;;;;;;;;;;5093335;28;20484;-72
2021/09/18 03:05:36;;;;;;;4.82;2.92;;;;;;;;;;5093968;28;20488;-72
2021/09/18 03:08:02;;;;;;;3.15;2.95;;;;;;;;;;5093459;28;20028;-72
2021/09/18 03:10:28;;;;;;;3.55;3.20;;;;;;;;;;5093461;28;20027;-72
2021/09/18 03:12:55;;;;;;;3.35;2.95;;;;;;;;;;5093543;28;20024;-72
2021/09/18 03:15:21;;;;;;;3.65;3.00;;;;;;;;;;5093837;28;20486;-72
2021/09/18 03:17:47;;;;;;;2.95;2.70;;;;;;;;;;5093454;28;20040;-72
2021/09/18 03:20:13;;;;;;;3.10;2.60;;;;;;;;;;5093234;28;20108;-72
2021/09/18 03:22:39;;;;;;;5.35;3.22;;;;;;;;;;5093503;28;20020;-72
2021/09/18 03:25:05;;;;;;;3.30;3.00;;;;;;;;;;5093603;28;20428;-72
2021/09/18 03:27:31;;;;;;;5.53;3.65;;;;;;;;;;5093320;28;20059;-72
2021/09/18 03:29:58;;;;;;;10.98;6.55;;;;;;;;;;5093054;28;20070;-72
2021/09/18 03:32:24;;;;;;;18.38;8.40;;;;;;;;;;5093218;28;20054;-72
2021/09/18 03:34:50;;;;;;;17.35;8.48;;;;;;;;;;5091624;28;20532;-72
2021/09/18 03:37:16;;;;;;;18.40;8.63;;;;;;;;;;5093253;28;20031;-72
2021/09/18 03:39:42;;;;;;;22.58;10.57;;;;;;;;;;5093331;28;20035;-71
2021/09/18 03:42:08;;;;;;;21.90;10.20;;;;;;;;;;5092978;28;20457;-72
2021/09/18 03:44:34;;;;;;;17.35;9.45;;;;;;;;;;5094087;28;20029;-72
2021/09/18 03:47:00;;;;;;;18.90;9.32;;;;;;;;;;5095979;28;20077;-72
2021/09/18 03:49:26;;;;;;;14.40;8.57;;;;;;;;;;5097609;28;20023;-72
2021/09/18 03:51:52;;;;;;;15.20;7.57;;;;;;;;;;5097316;28;20039;-71
2021/09/18 03:54:18;;;;;;;19.92;8.57;;;;;;;;;;5097404;28;20342;-72
2021/09/18 03:56:44;;;;;;;22.10;8.10;;;;;;;;;;5097334;28;20048;-72
2021/09/18 03:59:10;;;;;;;17.92;8.38;;;;;;;;;;5097000;28;20503;-72
2021/09/18 04:01:36;;;;;;;22.35;8.88;;;;;;;;;;5097126;28;20028;-72
2021/09/18 04:04:03;;;;;;;12.57;7.80;;;;;;;;;;5096963;28;20020;-72
2021/09/18 04:06:29;;;;;;;13.38;7.55;;;;;;;;;;5096881;28;20048;-71
2021/09/18 04:08:55;;;;;;;10.27;6.13;;;;;;;;;;5097305;28;20028;-71
2021/09/18 04:11:21;;;;;;;13.30;6.97;;;;;;;;;;5096717;28;20052;-72
2021/09/18 04:13:47;;;;;;;9.30;6.45;;;;;;;;;;5096895;28;20470;-72
2021/09/18 04:16:13;;;;;;;11.43;7.15;;;;;;;;;;5096875;28;20924;-72
2021/09/18 04:18:39;;;;;;;10.38;7.43;;;;;;;;;;5096706;28;20062;-72
2021/09/18 04:21:05;;;;;;;13.90;6.78;;;;;;;;;;5096953;28;20099;-72
2021/09/18 04:23:33;;;;;;;8.30;5.53;;;;;;;;;;5096787;28;20024;-72
2021/09/18 04:25:59;;;;;;;8.98;5.82;;;;;;;;;;5096191;28;20149;-72
2021/09/18 04:28:25;;;;;;;11.35;6.50;;;;;;;;;;5096934;28;20035;-72
2021/09/18 04:30:51;;;;;;;10.95;6.43;;;;;;;;;;5096809;28;20024;-72
2021/09/18 04:33:17;;;;;;;13.82;5.85;;;;;;;;;;5096865;28;20028;-72
2021/09/18 04:35:43;;;;;;;12.65;5.70;;;;;;;;;;5096442;28;20381;-72
2021/09/18 04:38:09;;;;;;;9.70;6.30;;;;;;;;;;5096084;28;20028;-72
2021/09/18 04:40:35;;;;;;;6.78;5.32;;;;;;;;;;5096114;28;20042;-72
2021/09/18 04:43:01;;;;;;;8.65;5.80;;;;;;;;;;5096397;28;20020;-72
2021/09/18 04:45:27;;;;;;;12.95;5.72;;;;;;;;;;5096581;28;20435;-72
2021/09/18 04:47:53;;;;;;;6.25;4.88;;;;;;;;;;5096279;28;20028;-75
2021/09/18 04:50:20;;;;;;;7.50;4.78;;;;;;;;;;5096420;28;20024;-72
2021/09/18 04:52:47;;;;;;;6.25;5.25;;;;;;;;;;5096296;28;20192;-72
2021/09/18 04:55:13;;;;;;;8.20;4.65;;;;;;;;;;5095720;28;20093;-72
2021/09/18 04:57:39;;;;;;;6.63;4.60;;;;;;;;;;5095362;28;20102;-72
2021/09/18 05:00:05;;;;;;;19.58;5.35;;;;;;;;;;5095810;28;20045;-73
2021/09/18 05:02:31;;;;;;;5.07;4.63;;;;;;;;;;5095849;28;20027;-72
2021/09/18 05:04:57;;;;;;;6.40;4.72;;;;;;;;;;5096090;28;20487;-72
2021/09/18 05:07:24;;;;;;;6.38;5.07;;;;;;;;;;5095994;28;20028;-72
2021/09/18 05:09:50;;;;;;;8.98;5.15;;;;;;;;;;5095658;28;20020;-73
2021/09/18 05:12:16;;;;;;;7.38;4.55;;;;;;;;;;5095329;28;20468;-72
2021/09/18 05:14:42;;;;;;;6.18;5.32;;;;;;;;;;5096233;28;20027;-72
2021/09/18 05:17:08;;;;;;;8.68;4.70;;;;;;;;;;5095567;28;20060;-71
2021/09/18 05:19:34;;;;;;;7.22;5.32;;;;;;;;;;5095690;28;20473;-72
2021/09/18 05:22:00;;;;;;;6.07;5.05;;;;;;;;;;5095377;28;20027;-73
2021/09/18 05:24:27;;;;;;;9.55;5.07;;;;;;;;;;5095310;28;20031;-73
2021/09/18 05:26:53;;;;;;;6.28;4.78;;;;;;;;;;5095458;28;20028;-72
2021/09/18 05:29:19;;;;;;;9.63;5.78;;;;;;;;;;5095854;28;20020;-72
2021/09/18 05:31:45;;;;;;;9.45;5.30;;;;;;;;;;5095602;28;20050;-72
2021/09/18 05:34:11;;;;;;;6.18;5.38;;;;;;;;;;5095075;28;20380;-72
2021/09/18 05:36:37;;;;;;;8.50;5.28;;;;;;;;;;5095469;28;20039;-72
2021/09/18 05:39:04;;;;;;;9.18;5.10;;;;;;;;;;5094972;28;20485;-72
2021/09/18 05:41:30;;;;;;;9.60;3.15;;;;;;;;;;5091666;28;20144;-72
2021/09/18 05:43:56;;;;;;;5.70;4.55;;;;;;;;;;5095276;28;20016;-72
2021/09/18 05:46:22;;;;;;;4.72;4.22;;;;;;;;;;5095312;28;20494;-72
2021/09/18 05:48:48;;;;;;;5.35;4.32;;;;;;;;;;5095474;28;20081;-72
2021/09/18 05:51:14;;;;;;;6.78;5.28;;;;;;;;;;5095618;28;20039;-73
2021/09/18 05:53:40;;;;;;;5.43;3.90;;;;;;;;;;5096031;28;20032;-73
2021/09/18 05:56:06;;;;;;;4.32;3.92;;;;;;;;;;5095028;28;20056;-73
2021/09/18 05:58:33;;;;;;;9.77;3.55;;;;;;;;;;5095368;28;20036;-72
2021/09/18 06:00:59;;;;;;;4.20;3.47;;;;;;;;;;5093833;28;20028;-73
2021/09/18 06:03:25;;;;;;;20.98;3.50;;;;;;;;;;5095435;28;20024;-71
2021/09/18 06:05:51;;;;;;;4.43;4.03;;;;;;;;;;5095613;28;20358;-71
2021/09/18 06:08:17;;;;;;;3.95;3.65;;;;;;;;;;5094947;28;20023;-71
2021/09/18 06:10:43;;;;;;;3.85;3.50;;;;;;;;;;5093282;28;20058;-72
2021/09/18 06:13:09;;;;;;;4.63;3.30;;;;;;;;;;5094750;28;20047;-72
2021/09/18 06:15:35;;;;;;;4.30;3.72;;;;;;;;;;5094575;28;20393;-72
2021/09/18 06:18:01;;;;;;;6.75;3.20;;;;;;;;;;5090784;28;20027;-73
2021/09/18 06:20:28;;;;;;;4.38;3.83;;;;;;;;;;5093472;28;20027;-74
2021/09/18 06:22:54;;;;;;;6.00;3.67;;;;;;;;;;5094415;28;20020;-71
2021/09/18 06:25:21;;;;;;;7.38;3.72;;;;;;;;;;5093841;28;20101;-71
2021/09/18 06:27:47;;;;;;;8.68;4.03;;;;;;;;;;5093753;28;20036;-72
2021/09/18 06:30:14;;;;;;;4.85;3.60;;;;;;;;;;5094099;28;20386;-74
2021/09/18 06:32:41;;;;;;;8.48;3.13;;;;;;;;;;5091037;28;20058;-74
2021/09/18 06:35:07;;;;;;;7.45;3.28;;;;;;;;;;5077672;28;20031;-75
2021/09/18 06:37:33;;;;;;;6.13;4.00;;;;;;;;;;5094726;28;20028;-74
2021/09/18 06:39:59;;;;;;;7.63;4.13;;;;;;;;;;5093274;28;20032;-77
2021/09/18 06:42:25;;;;;;;12.57;3.58;;;;;;;;;;5094762;28;20032;-77
2021/09/18 06:44:51;;;;;;;6.72;3.20;;;;;;;;;;5095153;28;20485;-76
2021/09/18 06:47:18;;;;;;;7.18;3.17;;;;;;;;;;5094595;28;20069;-74
2021/09/18 06:49:44;;;;;;;4.10;2.95;;;;;;;;;;5093034;28;20024;-76
2021/09/18 06:52:10;;;;;;;4.43;3.45;;;;;;;;;;5094273;28;20414;-77
2021/09/18 06:54:36;;;;;;;6.20;3.47;;;;;;;;;;5094819;28;20539;-77
2021/09/18 06:57:02;;;;;;;4.18;3.53;;;;;;;;;;5095104;28;20126;-77
2021/09/18 06:59:28;;;;;;;10.80;3.90;;;;;;;;;;5095090;28;20024;-78
2021/09/18 07:01:54;;;;;;;15.48;2.97;;;;;;;;;;5090618;28;20028;-78
2021/09/18 07:04:20;;;;;;;18.20;2.80;;;;;;;;;;5097053;28;20032;-77
2021/09/18 07:06:46;;;;;;;28.55;3.47;;;;;;;;;;5094805;28;20024;-75
2021/09/18 07:09:12;;;;;;;3.13;2.83;;;;;;;;;;5094758;28;20024;-75
2021/09/18 07:11:38;;;;;;;3.47;3.08;;;;;;;;;;5095082;28;20028;-79
2021/09/18 07:14:06;;;;;;;12.25;3.03;;;;;;;;;;5094350;28;20548;-73
2021/09/18 07:16:32;;;;;;;6.75;3.55;;;;;;;;;;5096536;28;20035;-75
2021/09/18 07:18:58;;;;;;;6.15;3.03;;;;;;;;;;5095330;28;20040;-74
2021/09/18 07:21:24;;;;;;;10.77;3.10;;;;;;;;;;5093264;28;20077;-76
2021/09/18 07:23:51;;;;;;;9.57;3.28;;;;;;;;;;5093842;28;20073;-78
2021/09/18 07:26:17;;;;;;;18.33;3.08;;;;;;;;;;5094809;28;20032;-75
2021/09/18 07:28:43;;;;;;;7.07;2.58;;;;;;;;;;5093763;28;20024;-76
2021/09/18 07:31:09;;;;;;;8.07;3.30;;;;;;;;;;5093990;28;21322;-76
2021/09/18 07:33:35;;;;;;;3.70;3.13;;;;;;;;;;5093390;28;20027;-77
2021/09/18 07:36:02;;;;;;;4.00;2.75;;;;;;;;;;5092870;28;20026;-79
2021/09/18 07:38:28;;;;;;;4.88;2.85;;;;;;;;;;5093596;28;20373;-82
2021/09/18 07:40:56;;;;;;;2.97;2.40;;;;;;;;;;5089997;28;20020;-75
2021/09/18 07:43:22;;;;;;;5.07;3.00;;;;;;;;;;5093447;28;20022;-74
2021/09/18 07:45:48;;;;;;;5.82;3.17;;;;;;;;;;5093321;28;20111;-76
2021/09/18 07:48:14;;;;;;;2.83;2.60;;;;;;;;;;5089280;28;20024;-74
2021/09/18 07:50:40;;;;;;;7.53;3.20;;;;;;;;;;5092319;28;20023;-75
2021/09/18 07:53:07;;;;;;;3.33;2.78;;;;;;;;;;5092249;28;20024;-76
2021/09/18 07:55:33;;;;;;;4.38;2.63;;;;;;;;;;5091523;28;20431;-77
2021/09/18 07:58:00;;;;;;;2.72;2.20;;;;;;;;;;5092912;28;20080;-81
2021/09/18 08:00:30;;;;;;;9.35;2.53;;;;;;;;;;5095420;28;20057;-87
2021/09/18 08:02:56;;;;;;;3.05;2.50;;;;;;;;;;5093900;28;20035;-82
2021/09/18 08:05:23;;;;;;;2.75;2.53;;;;;;;;;;5094850;28;20039;-77
2021/09/18 08:07:49;;;;;;;3.92;2.80;;;;;;;;;;5095874;28;20031;-90
2021/09/18 08:10:15;;;;;;;3.30;2.50;;;;;;;;;;5095215;28;20319;-81
2021/09/18 08:12:45;;;;;;;10.35;2.67;;;;;;;;;;5096112;28;20031;-79
2021/09/18 08:15:11;;;;;;;5.03;3.17;;;;;;;;;;5096323;28;20047;-78
2021/09/18 08:17:39;;;;;;;9.25;3.30;;;;;;;;;;5095711;28;20038;-80
2021/09/18 08:20:05;;;;;;;3.58;3.20;;;;;;;;;;5095987;28;20028;-88
2021/09/18 08:22:32;;;;;;;8.07;3.15;;;;;;;;;;5095874;28;20021;-89
2021/09/18 08:24:58;;;;;;;3.95;2.65;;;;;;;;;;5096034;28;20025;-86
2021/09/18 08:27:24;;;;;;;5.22;2.97;;;;;;;;;;5094187;28;20032;-78
2021/09/18 08:29:50;;;;;;;5.28;3.33;;;;;;;;;;5094028;28;20054;-81
2021/09/18 08:32:16;;;;;;;11.27;4.10;;;;;;;;;;5093621;28;20400;-84
2021/09/18 08:34:42;;;;;;;7.40;3.85;;;;;;;;;;5096726;28;20016;-80
2021/09/18 08:37:08;;;;;;;10.60;2.78;;;;;;;;;;5098505;28;20107;-87
2021/09/18 08:39:35;;;;;;;3.85;2.83;;;;;;;;;;5099161;28;20024;-78
2021/09/18 08:42:02;;;;;;;5.38;3.25;;;;;;;;;;5097477;28;20024;-75
2021/09/18 08:44:28;;;;;;;8.02;3.08;;;;;;;;;;5098016;28;20035;-77
2021/09/18 08:46:55;;;;;;;6.38;2.85;;;;;;;;;;5097613;28;20020;-80
2021/09/18 08:49:21;;;;;;;44.45;5.07;;;;;;;;;;5096095;28;20039;-74
2021/09/18 08:51:47;;;;;;;4.95;3.25;;;;;;;;;;5096155;28;20461;-73
2021/09/18 08:54:13;;;;;;;9.82;3.53;;;;;;;;;;5092648;28;20025;-77
2021/09/18 08:56:39;;;;;;;6.00;3.25;;;;;;;;;;5096186;28;20059;-77
2021/09/18 08:59:06;;;;;;;4.10;3.70;;;;;;;;;;5096448;28;20556;-76
2021/09/18 09:01:33;;;;;;;7.35;3.35;;;;;;;;;;5096899;28;20034;-76
2021/09/18 09:04:01;;;;;;;4.45;3.28;;;;;;;;;;5096815;28;20020;-77
2021/09/18 09:06:39;;;;;;;4.20;3.17;;;;;;;;;;5097157;28;20054;-79
2021/09/18 09:09:05;;;;;;;7.30;3.35;;;;;;;;;;5097044;28;20028;-76
2021/09/18 09:11:31;;;;;;;9.88;3.90;;;;;;;;;;5094073;28;20055;-76
2021/09/18 09:13:59;;;;;;;9.23;3.50;;;;;;;;;;5096506;28;20028;-76
2021/09/18 09:16:25;;;;;;;5.07;3.22;;;;;;;;;;5098001;28;20020;-75
2021/09/18 09:18:51;;;;;;;4.95;4.05;;;;;;;;;;5096522;28;20028;-76
2021/09/18 09:21:20;;;;;;;8.52;3.97;;;;;;;;;;5095923;28;20050;-79
2021/09/18 09:23:46;;;;;;;4.43;2.90;;;;;;;;;;5097500;28;20042;-78
2021/09/18 09:26:15;;;;;;;3.42;3.13;;;;;;;;;;5095598;28;20029;-79
2021/09/18 09:28:42;;;;;;;15.88;3.92;;;;;;;;;;5096600;28;20063;-77
2021/09/18 09:31:12;;;;;;;9.80;4.30;;;;;;;;;;5096151;28;20032;-80
2021/09/18 09:33:56;;;;;;;4.28;3.38;;;;;;;;;;5096719;28;20449;-77
2021/09/18 09:36:22;;;;;;;7.90;4.53;;;;;;;;;;5078127;28;20047;-88
2021/09/18 09:38:51;;;;;;;12.88;4.13;;;;;;;;;;5097295;28;20169;-85
2021/09/18 09:41:34;;;;;;;5.25;4.38;;;;;;;;;;5096401;28;20023;-84
2021/09/18 09:44:04;;;;;;;4.30;3.88;;;;;;;;;;5098680;28;20093;-88
2021/09/18 09:46:30;;;;;;;5.57;4.15;;;;;;;;;;5098899;28;20024;-80
2021/09/18 09:49:04;;;;;;;10.43;3.38;;;;;;;;;;5099308;28;20024;-79
2021/09/18 09:51:30;;;;;;;7.28;3.72;;;;;;;;;;5094613;28;20016;-78
2021/09/18 09:54:15;;;;;;;7.88;3.63;;;;;;;;;;5095175;28;20021;-79
2021/09/18 09:56:42;;;;;;;4.15;3.78;;;;;;;;;;5098409;28;20078;-78
2021/09/18 09:59:08;;;;;;;4.03;3.63;;;;;;;;;;5099451;28;20044;-74
2021/09/18 10:01:34;;;;;;;5.25;4.75;;;;;;;;;;5096507;28;20031;-82
2021/09/18 10:04:00;;;;;;;47.08;7.72;;;;;;;;;;5097008;28;20019;-82
2021/09/18 10:06:26;;;;;;;6.40;4.32;;;;;;;;;;5095348;28;20106;-79
2021/09/18 10:08:52;;;;;;;9.60;4.40;;;;;;;;;;5097612;28;20085;-81
2021/09/18 10:11:18;;;;;;;4.82;4.28;;;;;;;;;;5097132;28;20024;-82
2021/09/18 10:13:44;;;;;;;4.82;4.15;;;;;;;;;;5098614;28;20032;-87
2021/09/18 10:16:10;;;;;;;11.63;4.25;;;;;;;;;;5097656;28;20430;-85
2021/09/18 10:18:37;;;;;;;4.40;3.60;;;;;;;;;;5094921;28;20062;-79
2021/09/18 10:23:49;;;;;;;5.25;3.63;;;;;;;;;;5089560;28;20033;-80
2021/09/18 10:26:15;;;;;;;6.68;4.70;;;;;;;;;;5092408;28;20537;-80
2021/09/18 10:28:42;;;;;;;5.30;3.60;;;;;;;;;;5093127;28;20031;-80
2021/09/18 10:31:12;;;;;;;7.18;4.10;;;;;;;;;;5094688;28;20016;-80
2021/09/18 10:33:42;;;;;;;4.07;3.42;;;;;;;;;;5095135;28;20040;-84
2021/09/18 10:36:10;;;;;;;5.65;3.08;;;;;;;;;;5093118;28;20536;-85
2021/09/18 10:38:38;;;;;;;6.90;3.45;;;;;;;;;;5096033;28;20105;-81
2021/09/18 10:41:05;;;;;;;14.38;3.83;;;;;;;;;;5095871;28;20437;-83
2021/09/18 10:43:32;;;;;;;3.30;2.55;;;;;;;;;;5096174;28;20032;-82
2021/09/18 10:45:58;;;;;;;8.13;3.35;;;;;;;;;;5096975;28;20073;-81
2021/09/18 10:48:45;;;;;;;7.80;7.18;;;;;;;;;;5096341;28;20042;-82
2021/09/18 10:51:31;;;;;;;4.93;4.50;;;;;;;;;;5096898;28;20038;-84
2021/09/18 10:54:02;;;;;;;3.75;3.20;;;;;;;;;;5097379;28;20482;-84
2021/09/18 10:56:48;;;;;;;5.10;3.83;;;;;;;;;;5096934;28;20060;-83
2021/09/18 10:59:14;;;;;;;8.32;4.15;;;;;;;;;;5094860;28;20051;-81
2021/09/18 11:01:40;;;;;;;4.90;4.50;;;;;;;;;;5097114;28;20454;-82
2021/09/18 11:04:15;;;;;;;5.35;3.88;;;;;;;;;;5097172;28;20024;-80
2021/09/18 11:06:41;;;;;;;7.68;4.00;;;;;;;;;;5094586;28;20028;-81
2021/09/18 11:09:07;;;;;;;12.27;3.92;;;;;;;;;;5094136;28;20023;-86
2021/09/18 11:11:34;;;;;;;6.00;3.67;;;;;;;;;;5093845;28;20024;-82
2021/09/18 11:14:00;;;;;;;5.50;3.53;;;;;;;;;;5091561;28;20664;-85
2021/09/18 11:16:27;;;;;;;7.07;3.65;;;;;;;;;;5094116;28;20477;-85
2021/09/18 11:18:54;;;;;;;7.97;3.50;;;;;;;;;;5094274;28;20032;-72
2021/09/18 11:21:21;;;;;;;8.55;4.00;;;;;;;;;;5091569;28;20099;-85
2021/09/18 11:23:49;;;;;;;8.43;3.55;;;;;;;;;;5093280;28;20028;-88
2021/09/18 11:26:35;;;;;;;5.22;3.58;;;;;;;;;;5094326;28;20059;-90
2021/09/18 11:29:21;;;;;;;4.30;3.60;;;;;;;;;;5094472;28;20024;-83
2021/09/18 11:31:56;;;;;;;5.05;4.00;;;;;;;;;;5092403;28;20146;-81
2021/09/18 11:34:23;;;;;;;3.85;3.50;;;;;;;;;;5094721;28;20021;-89
2021/09/18 11:36:50;;;;;;;5.57;3.53;;;;;;;;;;5094262;28;20030;-81
2021/09/18 11:39:16;;;;;;;5.88;3.50;;;;;;;;;;5094690;28;20035;-76
2021/09/18 11:41:42;;;;;;;3.33;3.03;;;;;;;;;;5093530;28;20084;-74
2021/09/18 11:44:10;;;;;;;8.02;3.33;;;;;;;;;;5094257;28;20032;-77
2021/09/18 11:46:36;;;;;;;3.92;3.63;;;;;;;;;;5094873;28;20073;-78
2021/09/18 11:49:02;;;;;;;8.27;3.75;;;;;;;;;;5094789;28;20024;-79
2021/09/18 11:51:28;;;;;;;11.30;3.80;;;;;;;;;;5094233;28;20548;-78
2021/09/18 11:54:02;;;;;;;4.22;3.80;;;;;;;;;;5092816;28;20115;-74
2021/09/18 11:56:28;;;;;;;3.95;3.13;;;;;;;;;;5093110;28;20060;-78
2021/09/18 11:58:54;;;;;;;6.03;3.50;;;;;;;;;;5094268;28;20028;-76
2021/09/18 12:01:20;;;;;;;9.65;4.50;;;;;;;;;;5094004;28;20024;-80
2021/09/18 12:03:48;;;;;;;4.53;4.10;;;;;;;;;;5092477;28;20020;-78
2021/09/18 12:06:14;;;;;;;4.93;4.53;;;;;;;;;;5093276;28;20027;-96
2021/09/18 12:08:41;;;;;;;5.65;4.45;;;;;;;;;;5095378;28;20028;-89
2021/09/18 12:11:17;;;;;;;4.43;3.83;;;;;;;;;;5099423;28;20028;-77
2021/09/18 12:13:45;;;;;;;4.60;3.95;;;;;;;;;;5088948;28;20027;-76
2021/09/18 12:16:12;;;;;;;4.03;3.55;;;;;;;;;;5098066;28;20024;-88
2021/09/18 12:18:38;;;;;;;5.50;3.63;;;;;;;;;;5097810;28;20477;-96
2021/09/18 12:21:05;;;;;;;4.18;3.85;;;;;;;;;;5100697;28;20028;-88
2021/09/18 12:23:32;;;;;;;3.83;3.53;;;;;;;;;;5098045;28;20024;-82
2021/09/18 12:26:02;;;;;;;6.18;4.82;;;;;;;;;;5097682;28;20060;-82
2021/09/18 12:28:28;;;;;;;4.30;3.90;;;;;;;;;;5098212;28;20032;-84
2021/09/18 12:30:55;;;;;;;8.13;5.22;;;;;;;;;;5097777;28;20028;-80
2021/09/18 12:33:36;;;;;;;3.90;3.35;;;;;;;;;;5096530;28;20020;-83
2021/09/18 12:36:10;;;;;;;3.15;2.85;;;;;;;;;;5097761;28;20521;-85
2021/09/18 12:38:36;;;;;;;3.97;3.58;;;;;;;;;;5098195;28;20550;-84
2021/09/18 12:41:03;;;;;;;5.68;3.53;;;;;;;;;;5097750;28;20062;-92
2021/09/18 12:43:30;;;;;;;5.97;3.13;;;;;;;;;;5096240;28;20021;-91
2021/09/18 12:46:12;;;;;;;4.93;2.75;;;;;;;;;;5097886;28;20393;-83
2021/09/18 12:48:39;;;;;;;3.45;3.15;;;;;;;;;;5097812;28;20024;-93
2021/09/18 12:51:28;;;;;;;2.80;2.60;;;;;;;;;;5097259;28;20043;-83
2021/09/18 12:53:54;;;;;;;3.20;2.78;;;;;;;;;;5092518;28;20050;-77
2021/09/18 12:56:25;;;;;;;4.78;3.47;;;;;;;;;;5096946;28;20047;-77
2021/09/18 12:58:53;;;;;;;27.27;3.85;;;;;;;;;;5097783;28;20419;-77
2021/09/18 13:01:19;;;;;;;4.07;3.72;;;;;;;;;;5097296;28;20024;-78
2021/09/18 13:03:58;;;;;;;5.10;3.40;;;;;;;;;;5095808;28;20428;-76
2021/09/18 13:06:24;;;;;;;3.45;3.13;;;;;;;;;;5097427;28;20028;-83
2021/09/18 13:08:56;;;;;;;3.92;2.90;;;;;;;;;;5097309;28;20500;-82
2021/09/18 13:11:22;;;;;;;3.35;3.13;;;;;;;;;;5097383;28;20123;-81
2021/09/18 13:13:50;;;;;;;3.60;2.53;;;;;;;;;;5095782;28;20085;-80
2021/09/18 13:16:17;;;;;;;10.68;4.57;;;;;;;;;;5096718;28;20028;-76
2021/09/18 13:18:43;;;;;;;3.22;2.78;;;;;;;;;;5096243;28;20032;-82
2021/09/18 13:21:09;;;;;;;3.25;3.05;;;;;;;;;;5097072;28;20032;-83
2021/09/18 13:23:35;;;;;;;4.20;2.70;;;;;;;;;;5096932;28;20028;-76
2021/09/18 13:26:01;;;;;;;3.13;2.83;;;;;;;;;;5095145;28;20473;-83
2021/09/18 13:28:28;;;;;;;3.47;2.92;;;;;;;;;;5096638;28;20032;-87
2021/09/18 13:30:55;;;;;;;2.88;2.55;;;;;;;;;;5097252;28;20024;-85
2021/09/18 13:33:21;;;;;;;4.07;3.65;;;;;;;;;;5097007;28;20028;-83
2021/09/18 13:35:47;;;;;;;6.57;2.78;;;;;;;;;;5094751;28;20497;-77
2021/09/18 13:38:13;;;;;;;2.65;2.45;;;;;;;;;;5096701;28;20043;-87
2021/09/18 13:40:39;;;;;;;4.13;3.13;;;;;;;;;;5097263;28;20020;-79
2021/09/18 13:43:06;;;;;;;2.80;2.58;;;;;;;;;;5096561;28;20024;-78
2021/09/18 13:45:32;;;;;;;2.83;2.33;;;;;;;;;;5095476;28;20036;-77
2021/09/18 13:47:58;;;;;;;3.47;3.17;;;;;;;;;;5096303;28;20088;-75
2021/09/18 13:50:24;;;;;;;4.97;2.92;;;;;;;;;;5096330;28;20431;-79
2021/09/18 13:52:50;;;;;;;4.00;3.60;;;;;;;;;;5093637;28;20035;-76
2021/09/18 13:55:16;;;;;;;6.07;2.55;;;;;;;;;;5094061;28;20464;-78
2021/09/18 13:57:42;;;;;;;4.38;3.00;;;;;;;;;;5092674;28;20031;-79
2021/09/18 14:00:09;;;;;;;4.80;3.15;;;;;;;;;;5097851;28;20028;-77
2021/09/18 14:02:35;;;;;;;6.43;2.80;;;;;;;;;;5098019;28;20028;-81
2021/09/18 14:05:01;;;;;;;6.18;4.20;;;;;;;;;;5096967;28;20404;-79
2021/09/18 14:07:27;;;;;;;3.47;3.08;;;;;;;;;;5097791;28;20501;-82
2021/09/18 14:09:55;;;;;;;6.60;3.10;;;;;;;;;;5098184;28;20059;-81
2021/09/18 14:12:21;;;;;;;5.07;3.03;;;;;;;;;;5098599;28;20020;-78
2021/09/18 14:14:48;;;;;;;17.63;3.55;;;;;;;;;;5098419;28;20424;-80
2021/09/18 14:17:14;;;;;;;6.95;3.78;;;;;;;;;;5097972;28;20028;-78
2021/09/18 14:19:40;;;;;;;3.22;2.80;;;;;;;;;;5097939;28;20038;-76
2021/09/18 14:22:06;;;;;;;3.67;2.42;;;;;;;;;;5098745;28;20386;-77
2021/09/18 14:24:32;;;;;;;3.80;3.08;;;;;;;;;;5097471;28;20038;-77
2021/09/18 14:26:58;;;;;;;3.20;2.92;;;;;;;;;;5098442;28;20028;-82
2021/09/18 14:29:26;;;;;;;6.63;3.00;;;;;;;;;;5098407;28;20094;-77
2021/09/18 14:31:52;;;;;;;8.77;2.75;;;;;;;;;;5097392;28;20050;-75
2021/09/18 14:34:18;;;;;;;3.58;2.88;;;;;;;;;;5097821;28;20024;-81
2021/09/18 14:36:44;;;;;;;6.20;2.60;;;;;;;;;;5098075;28;20775;-77
2021/09/18 14:39:10;;;;;;;3.40;3.08;;;;;;;;;;5096953;28;20040;-84
2021/09/18 14:41:37;;;;;;;6.30;4.22;;;;;;;;;;5097075;28;20107;-84